createdAt,value
2023-05-04T00:24:27.058Z,5.20
2023-05-04T00:54:29.480Z,5.67
2023-05-04T01:24:31.912Z,6.66
2023-05-04T01:54:34.303Z,7.01
2023-05-04T02:24:36.845Z,7.57
2023-05-04T02:54:39.379Z,7.11
2023-05-04T03:24:42.021Z,9.71
2023-05-04T03:54:44.497Z,19.10
2023-05-04T04:24:46.982Z,13.92
2023-05-04T04:54:49.498Z,7.57
2023-05-04T05:24:56.421Z,9.49
2023-05-04T05:55:00.994Z,5.28
2023-05-04T06:25:05.053Z,5.09
2023-05-04T06:55:01.942Z,4.44
2023-05-04T07:25:04.504Z,4.09
2023-05-04T07:55:07.174Z,3.78
2023-05-04T08:25:10.806Z,3.23
2023-05-04T08:55:13.417Z,2.67
2023-05-04T09:25:16.396Z,2.53
2023-05-04T09:55:19.505Z,2.55
2023-05-04T10:25:22.713Z,2.54
2023-05-04T10:59:39.522Z,2.36
2023-05-04T11:29:43.080Z,2.39
2023-05-04T11:59:44.748Z,2.19
2023-05-04T12:47:05.515Z,2.15
2023-05-04T13:17:10.970Z,2.10
2023-05-04T13:47:12.207Z,2.25
2023-05-04T14:17:16.423Z,2.28
2023-05-04T14:47:19.158Z,2.30
2023-05-04T15:17:21.607Z,2.30
2023-05-04T15:47:26.115Z,2.46
2023-05-04T16:17:27.104Z,2.45
2023-05-04T16:47:30.876Z,2.11
2023-05-04T17:17:34.381Z,2.07
2023-05-04T17:47:36.134Z,2.37
2023-05-04T18:17:42.100Z,2.42
2023-05-04T18:47:36.760Z,4.99
2023-05-04T19:17:40.291Z,2.68
2023-05-04T19:47:43.000Z,3.01
2023-05-04T20:40:09.399Z,4.20
2023-05-04T21:10:12.122Z,5.94
2023-05-04T22:05:02.986Z,5.02
2023-05-04T22:35:06.557Z,4.02
2023-05-04T23:05:09.059Z,4.22
2023-05-04T23:35:12.370Z,4.49
